Pagrindinis puslapis
METAR-TAF:

METAR-TAF

Oro uostai :

Kampos dos Goitakazesas, Rio de Janeiro, Brazilija

platuma: 21-45S, ilguma: 041-20W, Aukštis: 11 m

Dabartinis oras

Ataskaita buvo paskelbta 31 minutes, ne 10:00 UTC
Ramus vėjas
Temperatūra 23°C
Drėgmė 83%
Slėgis 1015 hPa
Matomumas 10 km arba daugiau
Mažai debesys ne aukštis 1000 ft
Apsiniaukę ne aukštis 9000 ft

METAR: SBCP 091000Z 00000KT 9999 FEW010 OVC090 23/20 Q1015

Laikas: 07:31 (10:31 UTC)

Prognozė

Ataskaita buvo paskelbta 7 valandos ir 31 minutes, ne 03:00 UTC
Prognozė galioja nuo 09 metu 06 UTC su 09 metu 18 UTC
Vėjas 5 kt iš Vakarų/Pietvakarių
Matomumas 10 km arba daugiau
nėra debesų žemiau 1500 m ir nėra kamuolinių lietaus debesų
Tapsmas
nuo 09 metu 06 UTC su 09 metu 08 UTC
Vėjas kt iš Šiaurės
Tapsmas
nuo 09 metu 09 UTC su 09 metu 11 UTC
Vėjas 5 kt iš Šiaurės Rytų

TAF: SBCP 090300Z 0906/0918 25005KT CAVOK TN22/0910Z TX27/0917Z BECMG 0906/0908 00000KT BECMG 0909/0911 04005KT RMK PGY

Orai ataskaitas ir orų prognozės (METAR, TAF).

turimą stotys yra geltonos ir raudonos taškus žemėlapyje.

Perkelti pele per norėdami pamatyti stoties vardą.

Tada spustelėkite, norėdami matyti oro stebėjimo ir prognozės.

Norėdami pakeisti žemėlapį: spustelėkite ant žalios mygtukų su juodo kryžiaus žemyn,; žalią mygtuką su brūkšneliu, jei norite nutolinti; arba žalių rodyklių gretimoms žemėlapius.


METAR-TAF: